sensor_id;sensor_type;location;lat;lon;timestamp;temperature;humidity
20740;DHT22;10530;49.968;19.844;2022-09-09T00:09:16;17.50;99.90
20740;DHT22;10530;49.968;19.844;2022-09-09T00:14:45;17.40;99.90
20740;DHT22;10530;49.968;19.844;2022-09-09T00:30:53;17.40;99.90
20740;DHT22;10530;49.968;19.844;2022-09-09T00:35:58;17.40;99.90
20740;DHT22;10530;49.968;19.844;2022-09-09T01:02:31;17.30;99.90
20740;DHT22;10530;49.968;19.844;2022-09-09T01:07:39;17.30;99.90
20740;DHT22;10530;49.968;19.844;2022-09-09T01:12:43;17.30;99.90
20740;DHT22;10530;49.968;19.844;2022-09-09T01:17:56;17.30;99.90
20740;DHT22;10530;49.968;19.844;2022-09-09T01:28:57;17.30;99.90
20740;DHT22;10530;49.968;19.844;2022-09-09T01:34:13;17.20;99.90
20740;DHT22;10530;49.968;19.844;2022-09-09T01:39:17;17.10;99.90
20740;DHT22;10530;49.968;19.844;2022-09-09T01:44:25;17.10;99.90
20740;DHT22;10530;49.968;19.844;2022-09-09T01:49:28;16.90;99.90
20740;DHT22;10530;49.968;19.844;2022-09-09T01:54:33;16.70;99.90
20740;DHT22;10530;49.968;19.844;2022-09-09T02:04:54;16.60;99.90
20740;DHT22;10530;49.968;19.844;2022-09-09T02:10:30;16.50;99.90
20740;DHT22;10530;49.968;19.844;2022-09-09T02:16:10;16.50;99.90
20740;DHT22;10530;49.968;19.844;2022-09-09T02:21:17;16.40;99.90
20740;DHT22;10530;49.968;19.844;2022-09-09T02:26:22;16.40;99.90
20740;DHT22;10530;49.968;19.844;2022-09-09T02:31:34;16.40;99.90
20740;DHT22;10530;49.968;19.844;2022-09-09T02:36:43;16.40;99.90
20740;DHT22;10530;49.968;19.844;2022-09-09T02:41:46;16.40;99.90
20740;DHT22;10530;49.968;19.844;2022-09-09T02:52:50;16.60;99.90
20740;DHT22;10530;49.968;19.844;2022-09-09T02:57:33;16.60;99.90
20740;DHT22;10530;49.968;19.844;2022-09-09T03:02:39;16.70;99.90
20740;DHT22;10530;49.968;19.844;2022-09-09T03:07:42;16.60;99.90
20740;DHT22;10530;49.968;19.844;2022-09-09T03:12:45;16.60;99.90
20740;DHT22;10530;49.968;19.844;2022-09-09T03:17:49;16.50;99.90
20740;DHT22;10530;49.968;19.844;2022-09-09T03:22:53;16.40;99.90
20740;DHT22;10530;49.968;19.844;2022-09-09T03:27:56;16.20;99.90
20740;DHT22;10530;49.968;19.844;2022-09-09T03:32:59;16.10;99.90
20740;DHT22;10530;49.968;19.844;2022-09-09T03:38:06;16.10;99.90
20740;DHT22;10530;49.968;19.844;2022-09-09T03:43:11;16.10;99.90
20740;DHT22;10530;49.968;19.844;2022-09-09T03:48:14;16.00;99.90
20740;DHT22;10530;49.968;19.844;2022-09-09T03:53:19;16.00;99.90
20740;DHT22;10530;49.968;19.844;2022-09-09T03:58:23;16.00;99.90
20740;DHT22;10530;49.968;19.844;2022-09-09T04:03:34;16.00;99.90
20740;DHT22;10530;49.968;19.844;2022-09-09T04:08:37;16.00;99.90
20740;DHT22;10530;49.968;19.844;2022-09-09T04:13:41;16.00;99.90
20740;DHT22;10530;49.968;19.844;2022-09-09T04:18:46;16.00;99.90
20740;DHT22;10530;49.968;19.844;2022-09-09T04:23:51;15.90;99.90
20740;DHT22;10530;49.968;19.844;2022-09-09T04:28:54;15.80;99.90
20740;DHT22;10530;49.968;19.844;2022-09-09T04:33:58;15.80;99.90
20740;DHT22;10530;49.968;19.844;2022-09-09T04:39:04;15.80;99.90
20740;DHT22;10530;49.968;19.844;2022-09-09T04:44:07;15.90;99.90
20740;DHT22;10530;49.968;19.844;2022-09-09T04:49:10;16.00;99.90
20740;DHT22;10530;49.968;19.844;2022-09-09T04:54:18;16.00;99.90
20740;DHT22;10530;49.968;19.844;2022-09-09T04:59:22;16.00;99.90
20740;DHT22;10530;49.968;19.844;2022-09-09T05:04:29;16.10;99.90
20740;DHT22;10530;49.968;19.844;2022-09-09T05:09:33;16.30;99.90
20740;DHT22;10530;49.968;19.844;2022-09-09T05:14:36;16.40;99.90
20740;DHT22;10530;49.968;19.844;2022-09-09T05:19:40;16.50;99.90
20740;DHT22;10530;49.968;19.844;2022-09-09T05:24:44;16.60;99.90
20740;DHT22;10530;49.968;19.844;2022-09-09T05:29:47;16.70;99.90
20740;DHT22;10530;49.968;19.844;2022-09-09T05:34:50;16.80;99.90
20740;DHT22;10530;49.968;19.844;2022-09-09T05:39:54;16.70;99.90
20740;DHT22;10530;49.968;19.844;2022-09-09T05:44:57;16.70;99.90
20740;DHT22;10530;49.968;19.844;2022-09-09T05:50:01;16.90;99.90
20740;DHT22;10530;49.968;19.844;2022-09-09T05:55:05;16.90;99.90
20740;DHT22;10530;49.968;19.844;2022-09-09T06:00:09;16.90;99.90
20740;DHT22;10530;49.968;19.844;2022-09-09T06:05:15;17.40;99.90
20740;DHT22;10530;49.968;19.844;2022-09-09T06:10:18;17.70;99.90
20740;DHT22;10530;49.968;19.844;2022-09-09T06:15:21;17.70;99.90
20740;DHT22;10530;49.968;19.844;2022-09-09T06:20:24;18.30;99.90
20740;DHT22;10530;49.968;19.844;2022-09-09T06:25:27;18.20;99.90
20740;DHT22;10530;49.968;19.844;2022-09-09T06:30:31;18.10;99.90
20740;DHT22;10530;49.968;19.844;2022-09-09T06:35:33;18.20;99.90
20740;DHT22;10530;49.968;19.844;2022-09-09T06:40:37;18.80;99.90
20740;DHT22;10530;49.968;19.844;2022-09-09T06:45:40;19.20;99.90
20740;DHT22;10530;49.968;19.844;2022-09-09T06:50:43;19.20;99.90
20740;DHT22;10530;49.968;19.844;2022-09-09T06:55:46;19.10;99.90
20740;DHT22;10530;49.968;19.844;2022-09-09T07:00:50;19.20;99.90
20740;DHT22;10530;49.968;19.844;2022-09-09T07:05:55;19.30;99.90
20740;DHT22;10530;49.968;19.844;2022-09-09T07:11:05;19.30;99.90
20740;DHT22;10530;49.968;19.844;2022-09-09T07:16:16;19.60;99.90
20740;DHT22;10530;49.968;19.844;2022-09-09T07:21:20;19.80;99.90
20740;DHT22;10530;49.968;19.844;2022-09-09T07:26:26;20.10;99.90
20740;DHT22;10530;49.968;19.844;2022-09-09T07:31:34;19.90;99.90
20740;DHT22;10530;49.968;19.844;2022-09-09T07:36:42;19.80;99.90
20740;DHT22;10530;49.968;19.844;2022-09-09T07:41:48;19.80;99.90
20740;DHT22;10530;49.968;19.844;2022-09-09T07:46:54;20.10;99.90
20740;DHT22;10530;49.968;19.844;2022-09-09T07:52:02;20.20;99.90
20740;DHT22;10530;49.968;19.844;2022-09-09T07:57:06;20.20;99.90
20740;DHT22;10530;49.968;19.844;2022-09-09T08:02:12;20.30;99.90
20740;DHT22;10530;49.968;19.844;2022-09-09T08:07:15;20.70;99.90
20740;DHT22;10530;49.968;19.844;2022-09-09T08:12:26;21.10;99.90
20740;DHT22;10530;49.968;19.844;2022-09-09T08:17:30;21.60;99.90
20740;DHT22;10530;49.968;19.844;2022-09-09T08:22:38;22.00;99.90
20740;DHT22;10530;49.968;19.844;2022-09-09T08:27:41;22.10;99.90
20740;DHT22;10530;49.968;19.844;2022-09-09T08:32:44;22.90;99.90
20740;DHT22;10530;49.968;19.844;2022-09-09T08:37:48;23.40;99.90
20740;DHT22;10530;49.968;19.844;2022-09-09T08:42:57;24.40;99.90
20740;DHT22;10530;49.968;19.844;2022-09-09T08:53:19;24.80;99.90
20740;DHT22;10530;49.968;19.844;2022-09-09T08:58:31;24.30;99.90
20740;DHT22;10530;49.968;19.844;2022-09-09T09:09:52;25.30;99.90
20740;DHT22;10530;49.968;19.844;2022-09-09T09:15:23;24.50;99.90
20740;DHT22;10530;49.968;19.844;2022-09-09T09:26:08;24.10;99.90
20740;DHT22;10530;49.968;19.844;2022-09-09T09:31:13;24.00;99.90
20740;DHT22;10530;49.968;19.844;2022-09-09T09:36:24;25.00;99.90
20740;DHT22;10530;49.968;19.844;2022-09-09T09:41:37;25.80;99.90
20740;DHT22;10530;49.968;19.844;2022-09-09T09:46:42;27.00;99.90
20740;DHT22;10530;49.968;19.844;2022-09-09T09:51:47;26.90;99.90
20740;DHT22;10530;49.968;19.844;2022-09-09T09:56:50;25.70;99.90
20740;DHT22;10530;49.968;19.844;2022-09-09T10:01:54;26.50;99.90
20740;DHT22;10530;49.968;19.844;2022-09-09T10:06:57;26.20;99.90
20740;DHT22;10530;49.968;19.844;2022-09-09T10:22:27;26.10;99.90
20740;DHT22;10530;49.968;19.844;2022-09-09T10:33:10;28.30;93.40
20740;DHT22;10530;49.968;19.844;2022-09-09T10:39:01;28.30;90.00
20740;DHT22;10530;49.968;19.844;2022-09-09T10:54:36;25.40;94.40
20740;DHT22;10530;49.968;19.844;2022-09-09T10:59:45;25.10;90.50
20740;DHT22;10530;49.968;19.844;2022-09-09T11:15:46;25.00;99.90
20740;DHT22;10530;49.968;19.844;2022-09-09T11:20:58;27.20;92.70
20740;DHT22;10530;49.968;19.844;2022-09-09T11:26:03;27.50;79.30
20740;DHT22;10530;49.968;19.844;2022-09-09T11:41:38;28.10;63.90
20740;DHT22;10530;49.968;19.844;2022-09-09T11:46:41;26.20;72.70
20740;DHT22;10530;49.968;19.844;2022-09-09T11:51:44;26.40;85.40
20740;DHT22;10530;49.968;19.844;2022-09-09T11:56:47;28.30;69.20
20740;DHT22;10530;49.968;19.844;2022-09-09T12:01:59;27.40;64.70
20740;DHT22;10530;49.968;19.844;2022-09-09T12:17:21;27.40;63.40
20740;DHT22;10530;49.968;19.844;2022-09-09T12:22:47;26.10;63.80
20740;DHT22;10530;49.968;19.844;2022-09-09T12:33:17;25.90;65.70
20740;DHT22;10530;49.968;19.844;2022-09-09T12:38:35;26.50;62.60
20740;DHT22;10530;49.968;19.844;2022-09-09T12:43:38;27.20;72.40
20740;DHT22;10530;49.968;19.844;2022-09-09T12:48:41;26.80;56.20
20740;DHT22;10530;49.968;19.844;2022-09-09T12:53:48;26.50;51.70
20740;DHT22;10530;49.968;19.844;2022-09-09T12:58:54;27.10;53.40
20740;DHT22;10530;49.968;19.844;2022-09-09T13:03:57;27.10;55.60
20740;DHT22;10530;49.968;19.844;2022-09-09T13:09:01;28.20;57.70
20740;DHT22;10530;49.968;19.844;2022-09-09T13:14:05;27.60;52.50
20740;DHT22;10530;49.968;19.844;2022-09-09T13:19:13;27.50;54.80
20740;DHT22;10530;49.968;19.844;2022-09-09T13:24:29;28.00;56.40
20740;DHT22;10530;49.968;19.844;2022-09-09T13:29:32;27.70;49.40
20740;DHT22;10530;49.968;19.844;2022-09-09T13:34:35;27.80;54.60
20740;DHT22;10530;49.968;19.844;2022-09-09T13:39:38;27.20;46.60
20740;DHT22;10530;49.968;19.844;2022-09-09T13:44:41;27.50;48.70
20740;DHT22;10530;49.968;19.844;2022-09-09T13:49:44;27.60;50.80
20740;DHT22;10530;49.968;19.844;2022-09-09T13:54:49;27.30;50.50
20740;DHT22;10530;49.968;19.844;2022-09-09T13:59:53;28.00;49.10
20740;DHT22;10530;49.968;19.844;2022-09-09T14:05:07;27.40;48.40
20740;DHT22;10530;49.968;19.844;2022-09-09T14:10:12;26.30;52.40
20740;DHT22;10530;49.968;19.844;2022-09-09T14:15:14;25.70;47.60
20740;DHT22;10530;49.968;19.844;2022-09-09T14:20:17;26.40;56.50
20740;DHT22;10530;49.968;19.844;2022-09-09T14:25:21;27.10;46.40
20740;DHT22;10530;49.968;19.844;2022-09-09T14:30:24;27.50;57.80
20740;DHT22;10530;49.968;19.844;2022-09-09T14:35:27;27.00;51.40
20740;DHT22;10530;49.968;19.844;2022-09-09T14:40:30;26.90;57.90
20740;DHT22;10530;49.968;19.844;2022-09-09T14:45:35;27.20;51.90
20740;DHT22;10530;49.968;19.844;2022-09-09T14:50:39;27.10;63.50
20740;DHT22;10530;49.968;19.844;2022-09-09T14:55:43;26.60;58.40
20740;DHT22;10530;49.968;19.844;2022-09-09T15:00:46;26.20;60.00
20740;DHT22;10530;49.968;19.844;2022-09-09T15:05:49;25.90;56.80
20740;DHT22;10530;49.968;19.844;2022-09-09T15:10:59;25.40;57.50
20740;DHT22;10530;49.968;19.844;2022-09-09T15:16:11;25.20;69.30
20740;DHT22;10530;49.968;19.844;2022-09-09T15:21:16;25.30;79.40
20740;DHT22;10530;49.968;19.844;2022-09-09T15:26:20;25.70;63.40
20740;DHT22;10530;49.968;19.844;2022-09-09T15:31:28;25.60;66.10
20740;DHT22;10530;49.968;19.844;2022-09-09T15:36:38;25.60;62.40
20740;DHT22;10530;49.968;19.844;2022-09-09T15:41:45;24.70;81.30
20740;DHT22;10530;49.968;19.844;2022-09-09T15:46:50;24.70;88.10
20740;DHT22;10530;49.968;19.844;2022-09-09T15:51:56;24.10;79.50
20740;DHT22;10530;49.968;19.844;2022-09-09T15:57:02;24.40;93.40
20740;DHT22;10530;49.968;19.844;2022-09-09T16:02:06;24.30;91.80
20740;DHT22;10530;49.968;19.844;2022-09-09T16:07:09;23.90;99.90
20740;DHT22;10530;49.968;19.844;2022-09-09T16:12:12;23.30;99.90
20740;DHT22;10530;49.968;19.844;2022-09-09T16:17:16;22.50;99.90
20740;DHT22;10530;49.968;19.844;2022-09-09T16:22:21;22.10;99.90
20740;DHT22;10530;49.968;19.844;2022-09-09T16:27:24;21.20;99.90
20740;DHT22;10530;49.968;19.844;2022-09-09T16:32:27;20.70;99.90
20740;DHT22;10530;49.968;19.844;2022-09-09T16:37:30;20.00;99.90
20740;DHT22;10530;49.968;19.844;2022-09-09T16:42:36;19.80;99.90
20740;DHT22;10530;49.968;19.844;2022-09-09T16:47:41;19.20;99.90
20740;DHT22;10530;49.968;19.844;2022-09-09T16:52:44;18.90;99.90
20740;DHT22;10530;49.968;19.844;2022-09-09T16:57:47;18.60;99.90
20740;DHT22;10530;49.968;19.844;2022-09-09T17:02:52;18.40;99.90
20740;DHT22;10530;49.968;19.844;2022-09-09T17:07:55;18.10;99.90
20740;DHT22;10530;49.968;19.844;2022-09-09T17:13:01;17.90;99.90
20740;DHT22;10530;49.968;19.844;2022-09-09T17:18:04;17.80;99.90
20740;DHT22;10530;49.968;19.844;2022-09-09T17:23:08;17.70;99.90
20740;DHT22;10530;49.968;19.844;2022-09-09T17:28:12;17.50;99.90
20740;DHT22;10530;49.968;19.844;2022-09-09T17:33:14;17.50;99.90
20740;DHT22;10530;49.968;19.844;2022-09-09T17:38:17;17.40;99.90
20740;DHT22;10530;49.968;19.844;2022-09-09T17:43:20;17.30;99.90
20740;DHT22;10530;49.968;19.844;2022-09-09T17:48:24;17.20;99.90
20740;DHT22;10530;49.968;19.844;2022-09-09T17:53:26;17.20;99.90
20740;DHT22;10530;49.968;19.844;2022-09-09T17:58:30;17.20;99.90
20740;DHT22;10530;49.968;19.844;2022-09-09T18:03:36;17.10;99.90
20740;DHT22;10530;49.968;19.844;2022-09-09T18:08:40;17.00;99.90
20740;DHT22;10530;49.968;19.844;2022-09-09T18:13:43;16.90;99.90
20740;DHT22;10530;49.968;19.844;2022-09-09T18:18:50;16.90;99.90
20740;DHT22;10530;49.968;19.844;2022-09-09T18:23:54;16.80;99.90
20740;DHT22;10530;49.968;19.844;2022-09-09T18:28:58;16.80;99.90
20740;DHT22;10530;49.968;19.844;2022-09-09T18:34:03;17.00;99.90
20740;DHT22;10530;49.968;19.844;2022-09-09T18:39:07;17.00;99.90
20740;DHT22;10530;49.968;19.844;2022-09-09T18:44:16;17.10;99.90
20740;DHT22;10530;49.968;19.844;2022-09-09T18:49:21;17.00;99.90
20740;DHT22;10530;49.968;19.844;2022-09-09T18:54:28;16.90;99.90
20740;DHT22;10530;49.968;19.844;2022-09-09T18:59:33;16.90;99.90
20740;DHT22;10530;49.968;19.844;2022-09-09T19:04:36;16.70;99.90
20740;DHT22;10530;49.968;19.844;2022-09-09T19:09:38;16.60;99.90
20740;DHT22;10530;49.968;19.844;2022-09-09T19:14:42;16.50;99.90
20740;DHT22;10530;49.968;19.844;2022-09-09T19:19:45;16.40;99.90
20740;DHT22;10530;49.968;19.844;2022-09-09T19:24:49;16.30;99.90
20740;DHT22;10530;49.968;19.844;2022-09-09T19:29:53;16.20;99.90
20740;DHT22;10530;49.968;19.844;2022-09-09T19:34:58;16.00;99.90
20740;DHT22;10530;49.968;19.844;2022-09-09T19:40:01;16.00;99.90
20740;DHT22;10530;49.968;19.844;2022-09-09T19:45:05;16.20;99.90
20740;DHT22;10530;49.968;19.844;2022-09-09T19:50:09;16.20;99.90
20740;DHT22;10530;49.968;19.844;2022-09-09T19:55:12;16.40;99.90
20740;DHT22;10530;49.968;19.844;2022-09-09T20:00:15;16.50;99.90
20740;DHT22;10530;49.968;19.844;2022-09-09T20:05:18;16.50;99.90
20740;DHT22;10530;49.968;19.844;2022-09-09T20:10:21;16.40;99.90
20740;DHT22;10530;49.968;19.844;2022-09-09T20:15:26;16.40;99.90
20740;DHT22;10530;49.968;19.844;2022-09-09T20:20:29;16.40;99.90
20740;DHT22;10530;49.968;19.844;2022-09-09T20:25:35;16.20;99.90
20740;DHT22;10530;49.968;19.844;2022-09-09T20:30:38;16.00;99.90
20740;DHT22;10530;49.968;19.844;2022-09-09T20:35:41;15.80;99.90
20740;DHT22;10530;49.968;19.844;2022-09-09T20:40:44;15.70;99.90
20740;DHT22;10530;49.968;19.844;2022-09-09T20:45:47;15.70;99.90
20740;DHT22;10530;49.968;19.844;2022-09-09T20:50:51;15.70;99.90
20740;DHT22;10530;49.968;19.844;2022-09-09T20:56:01;15.70;99.90
20740;DHT22;10530;49.968;19.844;2022-09-09T21:01:05;15.80;99.90
20740;DHT22;10530;49.968;19.844;2022-09-09T21:06:08;15.60;99.90
20740;DHT22;10530;49.968;19.844;2022-09-09T21:11:12;15.60;99.90
20740;DHT22;10530;49.968;19.844;2022-09-09T21:16:17;15.60;99.90
20740;DHT22;10530;49.968;19.844;2022-09-09T21:21:23;15.70;99.90
20740;DHT22;10530;49.968;19.844;2022-09-09T21:26:28;15.70;99.90
20740;DHT22;10530;49.968;19.844;2022-09-09T21:31:31;15.80;99.90
20740;DHT22;10530;49.968;19.844;2022-09-09T21:36:34;15.80;99.90
20740;DHT22;10530;49.968;19.844;2022-09-09T21:41:37;15.80;99.90
20740;DHT22;10530;49.968;19.844;2022-09-09T21:46:41;15.70;99.90
20740;DHT22;10530;49.968;19.844;2022-09-09T21:51:45;15.80;99.90
20740;DHT22;10530;49.968;19.844;2022-09-09T21:56:49;15.60;99.90
20740;DHT22;10530;49.968;19.844;2022-09-09T22:01:53;15.80;99.90
20740;DHT22;10530;49.968;19.844;2022-09-09T22:06:56;15.90;99.90
20740;DHT22;10530;49.968;19.844;2022-09-09T22:11:59;15.80;99.90
20740;DHT22;10530;49.968;19.844;2022-09-09T22:17:02;15.90;99.90
20740;DHT22;10530;49.968;19.844;2022-09-09T22:22:06;15.90;99.90
20740;DHT22;10530;49.968;19.844;2022-09-09T22:27:09;15.70;99.90
20740;DHT22;10530;49.968;19.844;2022-09-09T22:32:13;15.80;99.90
20740;DHT22;10530;49.968;19.844;2022-09-09T22:37:17;15.80;99.90
20740;DHT22;10530;49.968;19.844;2022-09-09T22:42:20;15.70;99.90
20740;DHT22;10530;49.968;19.844;2022-09-09T22:47:24;15.80;99.90
20740;DHT22;10530;49.968;19.844;2022-09-09T22:52:30;15.70;99.90
20740;DHT22;10530;49.968;19.844;2022-09-09T22:57:35;15.70;99.90
20740;DHT22;10530;49.968;19.844;2022-09-09T23:02:38;15.80;99.90
20740;DHT22;10530;49.968;19.844;2022-09-09T23:07:42;15.70;99.90
20740;DHT22;10530;49.968;19.844;2022-09-09T23:12:45;15.70;99.90
20740;DHT22;10530;49.968;19.844;2022-09-09T23:17:48;15.80;99.90
20740;DHT22;10530;49.968;19.844;2022-09-09T23:22:53;15.90;99.90
20740;DHT22;10530;49.968;19.844;2022-09-09T23:27:57;16.00;99.90
20740;DHT22;10530;49.968;19.844;2022-09-09T23:33:00;16.00;99.90
20740;DHT22;10530;49.968;19.844;2022-09-09T23:38:03;15.90;99.90
20740;DHT22;10530;49.968;19.844;2022-09-09T23:43:06;16.00;99.90
20740;DHT22;10530;49.968;19.844;2022-09-09T23:48:10;16.00;99.90
20740;DHT22;10530;49.968;19.844;2022-09-09T23:53:12;16.00;99.90
20740;DHT22;10530;49.968;19.844;2022-09-09T23:58:16;15.80;99.90
